sensor_id;sensor_type;location;lat;lon;timestamp;P1;durP1;ratioP1;P2;durP2;ratioP2
64063;SDS011;50314;50.618;10.642;2023-07-09T00:02:22;4.45;;;3.28;;
64063;SDS011;50314;50.618;10.642;2023-07-09T00:04:49;4.13;;;3.15;;
64063;SDS011;50314;50.618;10.642;2023-07-09T00:07:27;3.42;;;2.80;;
64063;SDS011;50314;50.618;10.642;2023-07-09T00:09:55;4.85;;;2.80;;
64063;SDS011;50314;50.618;10.642;2023-07-09T00:12:20;4.70;;;3.30;;
64063;SDS011;50314;50.618;10.642;2023-07-09T00:14:47;4.40;;;3.08;;
64063;SDS011;50314;50.618;10.642;2023-07-09T00:19:56;3.85;;;2.85;;
64063;SDS011;50314;50.618;10.642;2023-07-09T00:22:22;5.15;;;3.60;;
64063;SDS011;50314;50.618;10.642;2023-07-09T00:24:48;5.15;;;3.08;;
64063;SDS011;50314;50.618;10.642;2023-07-09T00:27:27;5.28;;;3.33;;
64063;SDS011;50314;50.618;10.642;2023-07-09T00:29:55;4.43;;;3.00;;
64063;SDS011;50314;50.618;10.642;2023-07-09T00:32:21;4.25;;;3.03;;
64063;SDS011;50314;50.618;10.642;2023-07-09T00:34:47;5.30;;;3.45;;
64063;SDS011;50314;50.618;10.642;2023-07-09T00:37:21;4.47;;;3.17;;
64063;SDS011;50314;50.618;10.642;2023-07-09T00:39:52;4.10;;;3.08;;
64063;SDS011;50314;50.618;10.642;2023-07-09T00:42:19;4.07;;;3.05;;
64063;SDS011;50314;50.618;10.642;2023-07-09T00:44:46;4.32;;;3.10;;
64063;SDS011;50314;50.618;10.642;2023-07-09T00:47:23;4.05;;;3.08;;
64063;SDS011;50314;50.618;10.642;2023-07-09T00:49:59;5.07;;;2.70;;
64063;SDS011;50314;50.618;10.642;2023-07-09T00:52:31;5.55;;;3.25;;
64063;SDS011;50314;50.618;10.642;2023-07-09T00:55:10;4.60;;;3.28;;
64063;SDS011;50314;50.618;10.642;2023-07-09T00:57:41;3.90;;;3.15;;
64063;SDS011;50314;50.618;10.642;2023-07-09T01:00:14;5.07;;;3.30;;
64063;SDS011;50314;50.618;10.642;2023-07-09T01:02:44;4.95;;;3.13;;
64063;SDS011;50314;50.618;10.642;2023-07-09T01:05:11;5.20;;;3.08;;
64063;SDS011;50314;50.618;10.642;2023-07-09T01:07:39;4.55;;;3.20;;
64063;SDS011;50314;50.618;10.642;2023-07-09T01:10:05;5.43;;;3.47;;
64063;SDS011;50314;50.618;10.642;2023-07-09T01:12:31;4.40;;;3.20;;
64063;SDS011;50314;50.618;10.642;2023-07-09T01:14:57;4.38;;;3.35;;
64063;SDS011;50314;50.618;10.642;2023-07-09T01:17:25;4.82;;;3.05;;
64063;SDS011;50314;50.618;10.642;2023-07-09T01:19:53;3.65;;;2.95;;
64063;SDS011;50314;50.618;10.642;2023-07-09T01:22:20;4.38;;;3.30;;
64063;SDS011;50314;50.618;10.642;2023-07-09T01:24:53;3.55;;;2.83;;
64063;SDS011;50314;50.618;10.642;2023-07-09T01:27:33;4.57;;;3.20;;
64063;SDS011;50314;50.618;10.642;2023-07-09T01:30:06;4.13;;;3.22;;
64063;SDS011;50314;50.618;10.642;2023-07-09T01:32:36;4.22;;;3.17;;
64063;SDS011;50314;50.618;10.642;2023-07-09T01:35:03;4.88;;;2.97;;
64063;SDS011;50314;50.618;10.642;2023-07-09T01:37:32;5.03;;;3.50;;
64063;SDS011;50314;50.618;10.642;2023-07-09T01:40:00;4.20;;;3.10;;
64063;SDS011;50314;50.618;10.642;2023-07-09T01:42:26;3.58;;;2.78;;
64063;SDS011;50314;50.618;10.642;2023-07-09T01:44:53;5.30;;;3.03;;
64063;SDS011;50314;50.618;10.642;2023-07-09T01:47:20;3.85;;;2.92;;
64063;SDS011;50314;50.618;10.642;2023-07-09T01:49:48;4.50;;;3.20;;
64063;SDS011;50314;50.618;10.642;2023-07-09T01:54:41;3.95;;;2.85;;
64063;SDS011;50314;50.618;10.642;2023-07-09T01:57:15;4.25;;;2.90;;
64063;SDS011;50314;50.618;10.642;2023-07-09T01:59:45;4.63;;;3.25;;
64063;SDS011;50314;50.618;10.642;2023-07-09T02:02:10;4.05;;;2.90;;
64063;SDS011;50314;50.618;10.642;2023-07-09T02:04:50;4.22;;;3.08;;
64063;SDS011;50314;50.618;10.642;2023-07-09T02:07:17;4.03;;;2.97;;
64063;SDS011;50314;50.618;10.642;2023-07-09T02:09:45;4.03;;;2.78;;
64063;SDS011;50314;50.618;10.642;2023-07-09T02:12:11;4.18;;;2.88;;
64063;SDS011;50314;50.618;10.642;2023-07-09T02:14:37;4.03;;;2.95;;
64063;SDS011;50314;50.618;10.642;2023-07-09T02:17:03;3.55;;;2.65;;
64063;SDS011;50314;50.618;10.642;2023-07-09T02:19:29;4.43;;;2.85;;
64063;SDS011;50314;50.618;10.642;2023-07-09T02:21:55;4.82;;;3.47;;
64063;SDS011;50314;50.618;10.642;2023-07-09T02:24:20;3.47;;;2.65;;
64063;SDS011;50314;50.618;10.642;2023-07-09T02:26:49;4.10;;;3.00;;
64063;SDS011;50314;50.618;10.642;2023-07-09T02:29:19;4.38;;;2.92;;
64063;SDS011;50314;50.618;10.642;2023-07-09T02:31:45;3.92;;;3.08;;
64063;SDS011;50314;50.618;10.642;2023-07-09T02:34:10;4.05;;;3.05;;
64063;SDS011;50314;50.618;10.642;2023-07-09T02:36:36;4.15;;;2.95;;
64063;SDS011;50314;50.618;10.642;2023-07-09T02:39:01;3.95;;;3.00;;
64063;SDS011;50314;50.618;10.642;2023-07-09T02:41:27;5.57;;;3.53;;
64063;SDS011;50314;50.618;10.642;2023-07-09T02:43:53;4.03;;;3.00;;
64063;SDS011;50314;50.618;10.642;2023-07-09T02:46:18;3.63;;;2.70;;
64063;SDS011;50314;50.618;10.642;2023-07-09T02:48:44;4.43;;;2.90;;
64063;SDS011;50314;50.618;10.642;2023-07-09T02:51:09;4.55;;;3.08;;
64063;SDS011;50314;50.618;10.642;2023-07-09T02:53:35;3.58;;;2.60;;
64063;SDS011;50314;50.618;10.642;2023-07-09T02:56:00;3.80;;;2.95;;
64063;SDS011;50314;50.618;10.642;2023-07-09T02:58:26;5.68;;;3.33;;
64063;SDS011;50314;50.618;10.642;2023-07-09T03:00:51;4.80;;;3.03;;
64063;SDS011;50314;50.618;10.642;2023-07-09T03:03:18;4.05;;;3.00;;
64063;SDS011;50314;50.618;10.642;2023-07-09T03:05:44;5.22;;;3.58;;
64063;SDS011;50314;50.618;10.642;2023-07-09T03:08:10;4.10;;;2.92;;
64063;SDS011;50314;50.618;10.642;2023-07-09T03:10:36;3.50;;;2.67;;
64063;SDS011;50314;50.618;10.642;2023-07-09T03:13:01;3.80;;;2.88;;
64063;SDS011;50314;50.618;10.642;2023-07-09T03:15:27;4.20;;;3.05;;
64063;SDS011;50314;50.618;10.642;2023-07-09T03:17:52;3.88;;;2.85;;
64063;SDS011;50314;50.618;10.642;2023-07-09T03:20:18;4.25;;;3.13;;
64063;SDS011;50314;50.618;10.642;2023-07-09T03:22:43;4.05;;;2.97;;
64063;SDS011;50314;50.618;10.642;2023-07-09T03:25:09;4.47;;;3.00;;
64063;SDS011;50314;50.618;10.642;2023-07-09T03:27:34;4.15;;;2.90;;
64063;SDS011;50314;50.618;10.642;2023-07-09T03:30:00;3.92;;;3.03;;
64063;SDS011;50314;50.618;10.642;2023-07-09T03:32:25;4.13;;;2.80;;
64063;SDS011;50314;50.618;10.642;2023-07-09T03:34:51;4.03;;;2.92;;
64063;SDS011;50314;50.618;10.642;2023-07-09T03:37:18;3.17;;;2.47;;
64063;SDS011;50314;50.618;10.642;2023-07-09T03:39:46;3.28;;;2.50;;
64063;SDS011;50314;50.618;10.642;2023-07-09T03:42:12;4.03;;;2.80;;
64063;SDS011;50314;50.618;10.642;2023-07-09T03:44:37;3.85;;;2.72;;
64063;SDS011;50314;50.618;10.642;2023-07-09T03:47:03;3.40;;;2.58;;
64063;SDS011;50314;50.618;10.642;2023-07-09T03:49:32;3.55;;;2.58;;
64063;SDS011;50314;50.618;10.642;2023-07-09T03:51:57;3.33;;;2.65;;
64063;SDS011;50314;50.618;10.642;2023-07-09T03:54:23;4.35;;;2.65;;
64063;SDS011;50314;50.618;10.642;2023-07-09T03:56:49;4.22;;;3.08;;
64063;SDS011;50314;50.618;10.642;2023-07-09T03:59:14;4.47;;;3.05;;
64063;SDS011;50314;50.618;10.642;2023-07-09T04:01:40;4.18;;;3.00;;
64063;SDS011;50314;50.618;10.642;2023-07-09T04:04:11;3.85;;;2.92;;
64063;SDS011;50314;50.618;10.642;2023-07-09T04:06:39;3.75;;;2.92;;
64063;SDS011;50314;50.618;10.642;2023-07-09T04:09:05;3.80;;;2.80;;
64063;SDS011;50314;50.618;10.642;2023-07-09T04:11:30;4.50;;;3.03;;
64063;SDS011;50314;50.618;10.642;2023-07-09T04:13:56;4.10;;;3.20;;
64063;SDS011;50314;50.618;10.642;2023-07-09T04:16:21;3.63;;;2.65;;
64063;SDS011;50314;50.618;10.642;2023-07-09T04:18:47;4.93;;;3.10;;
64063;SDS011;50314;50.618;10.642;2023-07-09T04:21:12;4.25;;;3.20;;
64063;SDS011;50314;50.618;10.642;2023-07-09T04:23:38;3.60;;;3.03;;
64063;SDS011;50314;50.618;10.642;2023-07-09T04:26:04;3.95;;;3.03;;
64063;SDS011;50314;50.618;10.642;2023-07-09T04:28:29;5.05;;;3.05;;
64063;SDS011;50314;50.618;10.642;2023-07-09T04:30:56;3.50;;;2.75;;
64063;SDS011;50314;50.618;10.642;2023-07-09T04:33:21;3.25;;;2.67;;
64063;SDS011;50314;50.618;10.642;2023-07-09T04:35:47;3.63;;;2.80;;
64063;SDS011;50314;50.618;10.642;2023-07-09T04:38:13;4.03;;;3.10;;
64063;SDS011;50314;50.618;10.642;2023-07-09T04:40:40;3.80;;;2.80;;
64063;SDS011;50314;50.618;10.642;2023-07-09T04:43:06;4.07;;;2.78;;
64063;SDS011;50314;50.618;10.642;2023-07-09T04:45:31;3.80;;;3.03;;
64063;SDS011;50314;50.618;10.642;2023-07-09T04:47:57;3.72;;;2.45;;
64063;SDS011;50314;50.618;10.642;2023-07-09T04:50:22;4.70;;;2.70;;
64063;SDS011;50314;50.618;10.642;2023-07-09T04:52:48;3.90;;;2.92;;
64063;SDS011;50314;50.618;10.642;2023-07-09T04:55:13;3.70;;;2.50;;
64063;SDS011;50314;50.618;10.642;2023-07-09T04:57:39;4.55;;;3.17;;
64063;SDS011;50314;50.618;10.642;2023-07-09T05:00:05;4.45;;;4.05;;
64063;SDS011;50314;50.618;10.642;2023-07-09T05:02:31;3.58;;;2.70;;
64063;SDS011;50314;50.618;10.642;2023-07-09T05:04:57;3.97;;;2.97;;
64063;SDS011;50314;50.618;10.642;2023-07-09T05:07:22;3.60;;;2.80;;
64063;SDS011;50314;50.618;10.642;2023-07-09T05:09:48;3.80;;;2.70;;
64063;SDS011;50314;50.618;10.642;2023-07-09T05:12:13;4.47;;;2.92;;
64063;SDS011;50314;50.618;10.642;2023-07-09T05:14:39;6.03;;;4.40;;
64063;SDS011;50314;50.618;10.642;2023-07-09T05:17:05;8.15;;;4.30;;
64063;SDS011;50314;50.618;10.642;2023-07-09T05:19:31;6.78;;;4.53;;
64063;SDS011;50314;50.618;10.642;2023-07-09T05:21:57;5.68;;;4.40;;
64063;SDS011;50314;50.618;10.642;2023-07-09T05:24:22;6.40;;;4.32;;
64063;SDS011;50314;50.618;10.642;2023-07-09T05:26:48;5.97;;;4.30;;
64063;SDS011;50314;50.618;10.642;2023-07-09T05:29:13;5.63;;;4.65;;
64063;SDS011;50314;50.618;10.642;2023-07-09T05:31:39;6.15;;;4.45;;
64063;SDS011;50314;50.618;10.642;2023-07-09T05:34:06;5.78;;;4.07;;
64063;SDS011;50314;50.618;10.642;2023-07-09T05:36:32;6.95;;;5.03;;
64063;SDS011;50314;50.618;10.642;2023-07-09T05:38:58;6.18;;;4.75;;
64063;SDS011;50314;50.618;10.642;2023-07-09T05:41:23;5.57;;;4.60;;
64063;SDS011;50314;50.618;10.642;2023-07-09T05:43:49;5.80;;;4.38;;
64063;SDS011;50314;50.618;10.642;2023-07-09T05:46:16;6.15;;;4.28;;
64063;SDS011;50314;50.618;10.642;2023-07-09T05:48:42;6.10;;;4.63;;
64063;SDS011;50314;50.618;10.642;2023-07-09T05:51:07;6.55;;;4.22;;
64063;SDS011;50314;50.618;10.642;2023-07-09T05:53:33;6.00;;;4.40;;
64063;SDS011;50314;50.618;10.642;2023-07-09T05:55:58;6.75;;;4.65;;
64063;SDS011;50314;50.618;10.642;2023-07-09T05:58:24;5.50;;;4.40;;
64063;SDS011;50314;50.618;10.642;2023-07-09T06:00:52;5.90;;;4.35;;
64063;SDS011;50314;50.618;10.642;2023-07-09T06:03:21;6.07;;;4.72;;
64063;SDS011;50314;50.618;10.642;2023-07-09T06:08:17;5.50;;;4.43;;
64063;SDS011;50314;50.618;10.642;2023-07-09T06:10:53;4.82;;;3.53;;
64063;SDS011;50314;50.618;10.642;2023-07-09T06:13:23;6.30;;;4.70;;
64063;SDS011;50314;50.618;10.642;2023-07-09T06:15:51;6.05;;;4.30;;
64063;SDS011;50314;50.618;10.642;2023-07-09T06:18:19;6.28;;;4.60;;
64063;SDS011;50314;50.618;10.642;2023-07-09T06:20:46;7.75;;;5.18;;
64063;SDS011;50314;50.618;10.642;2023-07-09T06:23:13;8.55;;;4.53;;
64063;SDS011;50314;50.618;10.642;2023-07-09T06:25:38;6.93;;;5.15;;
64063;SDS011;50314;50.618;10.642;2023-07-09T06:28:04;9.18;;;4.82;;
64063;SDS011;50314;50.618;10.642;2023-07-09T06:30:29;7.22;;;5.18;;
64063;SDS011;50314;50.618;10.642;2023-07-09T06:32:55;6.45;;;4.72;;
64063;SDS011;50314;50.618;10.642;2023-07-09T06:35:20;6.70;;;4.57;;
64063;SDS011;50314;50.618;10.642;2023-07-09T06:37:45;6.35;;;4.93;;
64063;SDS011;50314;50.618;10.642;2023-07-09T06:40:11;6.75;;;5.07;;
64063;SDS011;50314;50.618;10.642;2023-07-09T06:42:37;6.28;;;4.45;;
64063;SDS011;50314;50.618;10.642;2023-07-09T06:45:03;6.90;;;5.10;;
64063;SDS011;50314;50.618;10.642;2023-07-09T06:47:29;7.03;;;4.55;;
64063;SDS011;50314;50.618;10.642;2023-07-09T06:49:55;5.50;;;3.92;;
64063;SDS011;50314;50.618;10.642;2023-07-09T06:52:20;6.30;;;4.97;;
64063;SDS011;50314;50.618;10.642;2023-07-09T06:54:46;7.25;;;4.60;;
64063;SDS011;50314;50.618;10.642;2023-07-09T06:57:11;6.88;;;4.65;;
64063;SDS011;50314;50.618;10.642;2023-07-09T06:59:37;6.82;;;4.53;;
64063;SDS011;50314;50.618;10.642;2023-07-09T07:02:03;5.93;;;4.43;;
64063;SDS011;50314;50.618;10.642;2023-07-09T07:04:28;7.82;;;4.80;;
64063;SDS011;50314;50.618;10.642;2023-07-09T07:06:54;6.13;;;4.70;;
64063;SDS011;50314;50.618;10.642;2023-07-09T07:09:22;5.82;;;4.32;;
64063;SDS011;50314;50.618;10.642;2023-07-09T07:11:48;7.50;;;4.60;;
64063;SDS011;50314;50.618;10.642;2023-07-09T07:14:14;8.45;;;4.95;;
64063;SDS011;50314;50.618;10.642;2023-07-09T07:16:39;8.50;;;5.13;;
64063;SDS011;50314;50.618;10.642;2023-07-09T07:19:05;5.63;;;4.55;;
64063;SDS011;50314;50.618;10.642;2023-07-09T07:21:31;6.03;;;4.53;;
64063;SDS011;50314;50.618;10.642;2023-07-09T07:23:56;7.63;;;4.95;;
64063;SDS011;50314;50.618;10.642;2023-07-09T07:26:22;7.88;;;5.10;;
64063;SDS011;50314;50.618;10.642;2023-07-09T07:28:47;7.85;;;4.85;;
64063;SDS011;50314;50.618;10.642;2023-07-09T07:31:13;9.10;;;4.88;;
64063;SDS011;50314;50.618;10.642;2023-07-09T07:33:39;6.60;;;4.57;;
64063;SDS011;50314;50.618;10.642;2023-07-09T07:36:06;6.57;;;4.60;;
64063;SDS011;50314;50.618;10.642;2023-07-09T07:38:32;5.72;;;4.43;;
64063;SDS011;50314;50.618;10.642;2023-07-09T07:41:00;7.72;;;4.78;;
64063;SDS011;50314;50.618;10.642;2023-07-09T07:43:26;7.32;;;4.50;;
64063;SDS011;50314;50.618;10.642;2023-07-09T07:45:51;6.82;;;4.72;;
64063;SDS011;50314;50.618;10.642;2023-07-09T07:48:17;6.13;;;4.43;;
64063;SDS011;50314;50.618;10.642;2023-07-09T07:50:42;7.38;;;4.80;;
64063;SDS011;50314;50.618;10.642;2023-07-09T07:53:08;6.40;;;4.32;;
64063;SDS011;50314;50.618;10.642;2023-07-09T07:55:34;7.05;;;5.00;;
64063;SDS011;50314;50.618;10.642;2023-07-09T07:58:01;8.18;;;4.82;;
64063;SDS011;50314;50.618;10.642;2023-07-09T08:00:28;8.38;;;4.55;;
64063;SDS011;50314;50.618;10.642;2023-07-09T08:02:54;6.15;;;4.47;;
64063;SDS011;50314;50.618;10.642;2023-07-09T08:05:19;7.45;;;4.93;;
64063;SDS011;50314;50.618;10.642;2023-07-09T08:07:45;5.63;;;4.13;;
64063;SDS011;50314;50.618;10.642;2023-07-09T08:10:11;6.60;;;5.10;;
64063;SDS011;50314;50.618;10.642;2023-07-09T08:12:37;6.07;;;4.80;;
64063;SDS011;50314;50.618;10.642;2023-07-09T08:15:03;33.97;;;11.75;;
64063;SDS011;50314;50.618;10.642;2023-07-09T08:17:29;25.17;;;9.48;;
64063;SDS011;50314;50.618;10.642;2023-07-09T08:19:54;27.67;;;9.50;;
64063;SDS011;50314;50.618;10.642;2023-07-09T08:22:20;33.72;;;12.00;;
64063;SDS011;50314;50.618;10.642;2023-07-09T08:24:47;56.75;;;19.25;;
64063;SDS011;50314;50.618;10.642;2023-07-09T08:27:13;91.47;;;26.45;;
64063;SDS011;50314;50.618;10.642;2023-07-09T08:29:39;79.55;;;24.30;;
64063;SDS011;50314;50.618;10.642;2023-07-09T08:32:06;74.30;;;22.83;;
64063;SDS011;50314;50.618;10.642;2023-07-09T08:34:33;64.55;;;21.88;;
64063;SDS011;50314;50.618;10.642;2023-07-09T08:36:58;57.10;;;17.73;;
64063;SDS011;50314;50.618;10.642;2023-07-09T08:39:24;39.58;;;14.38;;
64063;SDS011;50314;50.618;10.642;2023-07-09T08:47:06;26.10;;;9.60;;
64063;SDS011;50314;50.618;10.642;2023-07-09T08:49:54;14.80;;;7.60;;
64063;SDS011;50314;50.618;10.642;2023-07-09T08:54:57;11.32;;;5.93;;
64063;SDS011;50314;50.618;10.642;2023-07-09T08:57:32;14.23;;;6.22;;
64063;SDS011;50314;50.618;10.642;2023-07-09T09:00:05;8.10;;;4.82;;
64063;SDS011;50314;50.618;10.642;2023-07-09T09:02:41;12.00;;;5.78;;
64063;SDS011;50314;50.618;10.642;2023-07-09T09:05:13;12.13;;;5.63;;
64063;SDS011;50314;50.618;10.642;2023-07-09T09:07:44;10.10;;;4.97;;
64063;SDS011;50314;50.618;10.642;2023-07-09T09:10:14;7.78;;;4.25;;
64063;SDS011;50314;50.618;10.642;2023-07-09T09:12:53;6.55;;;3.67;;
64063;SDS011;50314;50.618;10.642;2023-07-09T09:15:26;8.57;;;3.78;;
64063;SDS011;50314;50.618;10.642;2023-07-09T09:17:53;5.57;;;3.53;;
64063;SDS011;50314;50.618;10.642;2023-07-09T09:20:23;7.80;;;3.42;;
64063;SDS011;50314;50.618;10.642;2023-07-09T09:22:50;7.72;;;4.20;;
64063;SDS011;50314;50.618;10.642;2023-07-09T09:25:30;7.10;;;4.00;;
64063;SDS011;50314;50.618;10.642;2023-07-09T09:27:58;6.25;;;3.95;;
64063;SDS011;50314;50.618;10.642;2023-07-09T09:30:25;5.20;;;3.30;;
64063;SDS011;50314;50.618;10.642;2023-07-09T09:32:53;5.45;;;3.67;;
64063;SDS011;50314;50.618;10.642;2023-07-09T09:35:20;6.55;;;3.67;;
64063;SDS011;50314;50.618;10.642;2023-07-09T09:37:58;5.90;;;3.45;;
64063;SDS011;50314;50.618;10.642;2023-07-09T09:40:26;5.90;;;3.60;;
64063;SDS011;50314;50.618;10.642;2023-07-09T09:42:55;6.70;;;3.35;;
64063;SDS011;50314;50.618;10.642;2023-07-09T09:45:26;6.07;;;3.25;;
64063;SDS011;50314;50.618;10.642;2023-07-09T09:47:57;7.20;;;3.72;;
64063;SDS011;50314;50.618;10.642;2023-07-09T09:50:25;5.75;;;3.15;;
64063;SDS011;50314;50.618;10.642;2023-07-09T09:52:55;6.78;;;3.63;;
64063;SDS011;50314;50.618;10.642;2023-07-09T09:55:24;6.60;;;3.70;;
64063;SDS011;50314;50.618;10.642;2023-07-09T10:00:22;6.60;;;3.58;;
64063;SDS011;50314;50.618;10.642;2023-07-09T10:02:50;4.35;;;3.00;;
64063;SDS011;50314;50.618;10.642;2023-07-09T10:05:16;5.55;;;3.10;;
64063;SDS011;50314;50.618;10.642;2023-07-09T10:07:58;5.35;;;3.22;;
64063;SDS011;50314;50.618;10.642;2023-07-09T10:10:28;5.05;;;3.25;;
64063;SDS011;50314;50.618;10.642;2023-07-09T10:12:59;5.75;;;3.20;;
64063;SDS011;50314;50.618;10.642;2023-07-09T10:16:01;5.68;;;3.50;;
64063;SDS011;50314;50.618;10.642;2023-07-09T10:21:08;5.95;;;3.28;;
64063;SDS011;50314;50.618;10.642;2023-07-09T10:23:43;5.72;;;3.28;;
64063;SDS011;50314;50.618;10.642;2023-07-09T10:26:40;5.07;;;3.17;;
64063;SDS011;50314;50.618;10.642;2023-07-09T10:40:31;6.00;;;3.20;;
64063;SDS011;50314;50.618;10.642;2023-07-09T10:43:02;4.90;;;2.78;;
64063;SDS011;50314;50.618;10.642;2023-07-09T10:45:29;5.25;;;3.08;;
64063;SDS011;50314;50.618;10.642;2023-07-09T10:48:01;5.47;;;3.00;;
64063;SDS011;50314;50.618;10.642;2023-07-09T10:50:34;5.18;;;2.88;;
64063;SDS011;50314;50.618;10.642;2023-07-09T10:53:09;5.30;;;2.80;;
64063;SDS011;50314;50.618;10.642;2023-07-09T10:55:50;4.97;;;2.83;;
64063;SDS011;50314;50.618;10.642;2023-07-09T10:58:27;5.13;;;3.38;;
64063;SDS011;50314;50.618;10.642;2023-07-09T11:03:43;5.70;;;2.58;;
64063;SDS011;50314;50.618;10.642;2023-07-09T11:06:22;4.10;;;2.78;;
64063;SDS011;50314;50.618;10.642;2023-07-09T11:08:59;4.40;;;2.85;;
64063;SDS011;50314;50.618;10.642;2023-07-09T11:11:32;4.90;;;2.88;;
64063;SDS011;50314;50.618;10.642;2023-07-09T11:14:02;4.60;;;2.97;;
64063;SDS011;50314;50.618;10.642;2023-07-09T11:16:38;5.70;;;3.00;;
64063;SDS011;50314;50.618;10.642;2023-07-09T11:19:06;5.38;;;3.35;;
64063;SDS011;50314;50.618;10.642;2023-07-09T11:21:56;4.68;;;2.95;;
64063;SDS011;50314;50.618;10.642;2023-07-09T11:27:22;4.13;;;2.53;;
64063;SDS011;50314;50.618;10.642;2023-07-09T11:29:57;4.68;;;2.85;;
64063;SDS011;50314;50.618;10.642;2023-07-09T11:32:26;5.20;;;2.70;;
64063;SDS011;50314;50.618;10.642;2023-07-09T11:34:52;4.60;;;2.70;;
64063;SDS011;50314;50.618;10.642;2023-07-09T11:37:18;5.38;;;2.67;;
64063;SDS011;50314;50.618;10.642;2023-07-09T11:39:48;5.05;;;2.78;;
64063;SDS011;50314;50.618;10.642;2023-07-09T11:42:33;4.47;;;2.63;;
64063;SDS011;50314;50.618;10.642;2023-07-09T11:50:15;4.63;;;2.50;;
64063;SDS011;50314;50.618;10.642;2023-07-09T11:52:54;6.07;;;3.13;;
64063;SDS011;50314;50.618;10.642;2023-07-09T11:55:27;4.70;;;2.75;;
64063;SDS011;50314;50.618;10.642;2023-07-09T11:58:10;5.47;;;2.88;;
64063;SDS011;50314;50.618;10.642;2023-07-09T12:00:39;4.35;;;2.45;;
64063;SDS011;50314;50.618;10.642;2023-07-09T12:03:14;5.50;;;2.78;;
64063;SDS011;50314;50.618;10.642;2023-07-09T12:05:46;5.65;;;2.42;;
64063;SDS011;50314;50.618;10.642;2023-07-09T12:08:15;4.57;;;2.42;;
64063;SDS011;50314;50.618;10.642;2023-07-09T12:10:42;5.05;;;2.50;;
64063;SDS011;50314;50.618;10.642;2023-07-09T12:13:10;5.40;;;3.00;;
64063;SDS011;50314;50.618;10.642;2023-07-09T12:15:38;3.55;;;2.40;;
64063;SDS011;50314;50.618;10.642;2023-07-09T12:18:14;4.88;;;2.60;;
64063;SDS011;50314;50.618;10.642;2023-07-09T12:20:41;5.10;;;2.72;;
64063;SDS011;50314;50.618;10.642;2023-07-09T12:23:19;5.05;;;2.55;;
64063;SDS011;50314;50.618;10.642;2023-07-09T12:25:49;5.07;;;3.20;;
64063;SDS011;50314;50.618;10.642;2023-07-09T12:28:16;4.28;;;2.60;;
64063;SDS011;50314;50.618;10.642;2023-07-09T12:30:49;4.28;;;2.70;;
64063;SDS011;50314;50.618;10.642;2023-07-09T12:33:19;4.00;;;2.55;;
64063;SDS011;50314;50.618;10.642;2023-07-09T12:35:46;4.90;;;2.90;;
64063;SDS011;50314;50.618;10.642;2023-07-09T12:38:19;3.97;;;2.50;;
64063;SDS011;50314;50.618;10.642;2023-07-09T12:40:50;5.07;;;2.70;;
64063;SDS011;50314;50.618;10.642;2023-07-09T12:43:19;5.25;;;2.60;;
64063;SDS011;50314;50.618;10.642;2023-07-09T12:48:16;4.78;;;2.67;;
64063;SDS011;50314;50.618;10.642;2023-07-09T12:50:41;4.32;;;2.25;;
64063;SDS011;50314;50.618;10.642;2023-07-09T12:53:16;4.10;;;2.50;;
64063;SDS011;50314;50.618;10.642;2023-07-09T12:55:47;4.97;;;2.50;;
64063;SDS011;50314;50.618;10.642;2023-07-09T12:58:19;3.78;;;2.63;;
64063;SDS011;50314;50.618;10.642;2023-07-09T13:00:53;4.00;;;2.63;;
64063;SDS011;50314;50.618;10.642;2023-07-09T13:03:24;3.65;;;2.45;;
64063;SDS011;50314;50.618;10.642;2023-07-09T13:06:55;5.25;;;2.40;;
64063;SDS011;50314;50.618;10.642;2023-07-09T13:09:09;5.47;;;2.50;;
64063;SDS011;50314;50.618;10.642;2023-07-09T13:11:40;4.32;;;2.88;;
64063;SDS011;50314;50.618;10.642;2023-07-09T13:14:11;4.90;;;2.80;;
64063;SDS011;50314;50.618;10.642;2023-07-09T13:16:47;4.82;;;2.60;;
64063;SDS011;50314;50.618;10.642;2023-07-09T13:19:13;4.97;;;2.75;;
64063;SDS011;50314;50.618;10.642;2023-07-09T13:21:39;4.20;;;2.40;;
64063;SDS011;50314;50.618;10.642;2023-07-09T13:24:13;4.60;;;2.65;;
64063;SDS011;50314;50.618;10.642;2023-07-09T13:26:42;4.88;;;2.83;;
64063;SDS011;50314;50.618;10.642;2023-07-09T13:29:14;5.80;;;2.90;;
64063;SDS011;50314;50.618;10.642;2023-07-09T13:31:42;4.65;;;2.47;;
64063;SDS011;50314;50.618;10.642;2023-07-09T13:34:22;4.22;;;2.67;;
64063;SDS011;50314;50.618;10.642;2023-07-09T13:36:50;4.22;;;2.50;;
64063;SDS011;50314;50.618;10.642;2023-07-09T13:39:19;4.13;;;2.47;;
64063;SDS011;50314;50.618;10.642;2023-07-09T13:41:45;4.40;;;2.88;;
64063;SDS011;50314;50.618;10.642;2023-07-09T13:44:22;4.75;;;2.63;;
64063;SDS011;50314;50.618;10.642;2023-07-09T13:46:51;3.75;;;2.40;;
64063;SDS011;50314;50.618;10.642;2023-07-09T13:49:18;5.22;;;2.58;;
64063;SDS011;50314;50.618;10.642;2023-07-09T13:51:45;4.65;;;3.03;;
64063;SDS011;50314;50.618;10.642;2023-07-09T13:54:17;4.10;;;2.55;;
64063;SDS011;50314;50.618;10.642;2023-07-09T13:56:47;4.35;;;2.70;;
64063;SDS011;50314;50.618;10.642;2023-07-09T13:59:15;5.13;;;2.30;;
64063;SDS011;50314;50.618;10.642;2023-07-09T14:01:43;4.47;;;2.33;;
64063;SDS011;50314;50.618;10.642;2023-07-09T14:04:10;3.45;;;2.10;;
64063;SDS011;50314;50.618;10.642;2023-07-09T14:06:37;3.60;;;2.10;;
64063;SDS011;50314;50.618;10.642;2023-07-09T14:09:03;4.55;;;2.83;;
64063;SDS011;50314;50.618;10.642;2023-07-09T14:11:29;3.92;;;2.38;;
64063;SDS011;50314;50.618;10.642;2023-07-09T14:13:55;4.93;;;2.85;;
64063;SDS011;50314;50.618;10.642;2023-07-09T14:16:21;3.80;;;2.33;;
64063;SDS011;50314;50.618;10.642;2023-07-09T14:18:46;3.63;;;2.45;;
64063;SDS011;50314;50.618;10.642;2023-07-09T14:21:13;3.95;;;2.38;;
64063;SDS011;50314;50.618;10.642;2023-07-09T14:23:40;4.38;;;2.40;;
64063;SDS011;50314;50.618;10.642;2023-07-09T14:26:05;3.72;;;2.13;;
64063;SDS011;50314;50.618;10.642;2023-07-09T14:28:32;5.00;;;2.13;;
64063;SDS011;50314;50.618;10.642;2023-07-09T14:30:59;3.17;;;2.00;;
64063;SDS011;50314;50.618;10.642;2023-07-09T14:33:24;3.88;;;2.25;;
64063;SDS011;50314;50.618;10.642;2023-07-09T14:35:50;3.92;;;2.53;;
64063;SDS011;50314;50.618;10.642;2023-07-09T14:38:20;3.97;;;2.05;;
64063;SDS011;50314;50.618;10.642;2023-07-09T14:40:49;2.85;;;2.00;;
64063;SDS011;50314;50.618;10.642;2023-07-09T14:43:17;3.25;;;2.25;;
64063;SDS011;50314;50.618;10.642;2023-07-09T14:45:43;3.30;;;1.95;;
64063;SDS011;50314;50.618;10.642;2023-07-09T14:48:10;3.38;;;2.03;;
64063;SDS011;50314;50.618;10.642;2023-07-09T14:50:38;2.95;;;2.03;;
64063;SDS011;50314;50.618;10.642;2023-07-09T14:53:05;4.03;;;2.05;;
64063;SDS011;50314;50.618;10.642;2023-07-09T14:55:45;3.13;;;1.83;;
64063;SDS011;50314;50.618;10.642;2023-07-09T14:58:22;3.65;;;2.35;;
64063;SDS011;50314;50.618;10.642;2023-07-09T15:00:49;5.57;;;2.20;;
64063;SDS011;50314;50.618;10.642;2023-07-09T15:03:19;3.60;;;2.20;;
64063;SDS011;50314;50.618;10.642;2023-07-09T15:05:46;3.25;;;1.88;;
64063;SDS011;50314;50.618;10.642;2023-07-09T15:08:13;3.50;;;2.17;;
64063;SDS011;50314;50.618;10.642;2023-07-09T15:10:41;2.80;;;1.85;;
64063;SDS011;50314;50.618;10.642;2023-07-09T15:13:28;3.47;;;2.20;;
64063;SDS011;50314;50.618;10.642;2023-07-09T15:15:58;3.20;;;2.10;;
64063;SDS011;50314;50.618;10.642;2023-07-09T15:18:24;3.55;;;1.83;;
64063;SDS011;50314;50.618;10.642;2023-07-09T15:20:50;2.97;;;2.00;;
64063;SDS011;50314;50.618;10.642;2023-07-09T15:23:20;2.67;;;1.83;;
64063;SDS011;50314;50.618;10.642;2023-07-09T15:25:47;3.45;;;2.15;;
64063;SDS011;50314;50.618;10.642;2023-07-09T15:28:14;3.40;;;1.95;;